sensor_id;sensor_type;location;lat;lon;timestamp;pressure;altitude;pressure_sealevel;temperature;humidity
71948;BME280;63257;55.082;38.772;2023-02-12T00:00:33;98484.97;;;-0.90;79.81
71948;BME280;63257;55.082;38.772;2023-02-12T00:02:59;98448.25;;;-1.05;79.63
71948;BME280;63257;55.082;38.772;2023-02-12T00:05:24;98466.13;;;-0.95;79.09
71948;BME280;63257;55.082;38.772;2023-02-12T00:07:50;98478.47;;;-0.75;79.46
71948;BME280;63257;55.082;38.772;2023-02-12T00:10:17;98454.72;;;-0.90;79.26
71948;BME280;63257;55.082;38.772;2023-02-12T00:12:43;98472.31;;;-0.71;79.20
71948;BME280;63257;55.082;38.772;2023-02-12T00:15:09;98473.16;;;-0.71;78.98
71948;BME280;63257;55.082;38.772;2023-02-12T00:17:36;98467.13;;;-0.71;79.24
71948;BME280;63257;55.082;38.772;2023-02-12T00:20:02;98469.50;;;-0.65;79.31
71948;BME280;63257;55.082;38.772;2023-02-12T00:22:29;98462.06;;;-0.74;78.99
71948;BME280;63257;55.082;38.772;2023-02-12T00:24:55;98444.03;;;-0.79;79.23
71948;BME280;63257;55.082;38.772;2023-02-12T00:27:22;98448.94;;;-0.70;78.76
71948;BME280;63257;55.082;38.772;2023-02-12T00:29:48;98458.38;;;-0.67;78.98
71948;BME280;63257;55.082;38.772;2023-02-12T00:32:14;98453.97;;;-0.65;79.46
71948;BME280;63257;55.082;38.772;2023-02-12T00:34:46;98432.72;;;-0.76;79.07
71948;BME280;63257;55.082;38.772;2023-02-12T00:37:14;98448.00;;;-0.67;79.10
71948;BME280;63257;55.082;38.772;2023-02-12T00:39:41;98449.59;;;-0.63;79.03
71948;BME280;63257;55.082;38.772;2023-02-12T00:42:09;98441.13;;;-0.68;79.36
71948;BME280;63257;55.082;38.772;2023-02-12T00:44:35;98457.69;;;-0.45;79.13
71948;BME280;63257;55.082;38.772;2023-02-12T00:47:03;98448.91;;;-0.41;78.48
71948;BME280;63257;55.082;38.772;2023-02-12T00:49:30;98448.81;;;-0.38;78.67
71948;BME280;63257;55.082;38.772;2023-02-12T00:52:00;98448.09;;;-0.43;78.83
71948;BME280;63257;55.082;38.772;2023-02-12T00:54:28;98450.00;;;-0.48;78.79
71948;BME280;63257;55.082;38.772;2023-02-12T00:56:55;98462.78;;;-0.42;78.65
71948;BME280;63257;55.082;38.772;2023-02-12T00:59:24;98463.75;;;-0.46;78.44
71948;BME280;63257;55.082;38.772;2023-02-12T01:01:53;98441.78;;;-0.61;78.50
71948;BME280;63257;55.082;38.772;2023-02-12T01:04:20;98459.47;;;-0.47;78.42
71948;BME280;63257;55.082;38.772;2023-02-12T01:06:46;98428.44;;;-0.77;78.96
71948;BME280;63257;55.082;38.772;2023-02-12T01:09:12;98447.63;;;-0.55;78.93
71948;BME280;63257;55.082;38.772;2023-02-12T01:11:40;98456.69;;;-0.41;78.35
71948;BME280;63257;55.082;38.772;2023-02-12T01:14:06;98440.84;;;-0.59;79.16
71948;BME280;63257;55.082;38.772;2023-02-12T01:16:32;98457.88;;;-0.52;78.79
71948;BME280;63257;55.082;38.772;2023-02-12T01:19:03;98459.47;;;-0.47;78.61
71948;BME280;63257;55.082;38.772;2023-02-12T01:21:31;98458.47;;;-0.43;78.99
71948;BME280;63257;55.082;38.772;2023-02-12T01:23:58;98460.19;;;-0.42;78.69
71948;BME280;63257;55.082;38.772;2023-02-12T01:26:25;98475.63;;;-0.39;78.99
71948;BME280;63257;55.082;38.772;2023-02-12T01:28:54;98465.19;;;-0.38;78.65
71948;BME280;63257;55.082;38.772;2023-02-12T01:31:23;98470.94;;;-0.28;79.02
71948;BME280;63257;55.082;38.772;2023-02-12T01:33:51;98471.75;;;-0.26;77.94
71948;BME280;63257;55.082;38.772;2023-02-12T01:36:18;98479.53;;;-0.26;78.44
71948;BME280;63257;55.082;38.772;2023-02-12T01:38:46;98468.50;;;-0.32;78.69
71948;BME280;63257;55.082;38.772;2023-02-12T01:41:24;98474.38;;;-0.27;78.57
71948;BME280;63257;55.082;38.772;2023-02-12T01:46:38;98473.63;;;-0.31;78.77
71948;BME280;63257;55.082;38.772;2023-02-12T01:49:11;98475.13;;;-0.24;79.05
71948;BME280;63257;55.082;38.772;2023-02-12T01:51:39;98477.59;;;-0.19;78.39
71948;BME280;63257;55.082;38.772;2023-02-12T01:54:09;98480.00;;;-0.14;78.78
71948;BME280;63257;55.082;38.772;2023-02-12T01:56:36;98483.03;;;-0.02;78.15
71948;BME280;63257;55.082;38.772;2023-02-12T01:59:04;98463.19;;;-0.03;77.88
71948;BME280;63257;55.082;38.772;2023-02-12T02:01:31;98454.78;;;-0.09;78.08
71948;BME280;63257;55.082;38.772;2023-02-12T02:04:01;98478.72;;;-0.01;77.99
71948;BME280;63257;55.082;38.772;2023-02-12T02:06:34;98488.91;;;0.04;78.10
71948;BME280;63257;55.082;38.772;2023-02-12T02:09:01;98484.19;;;-0.10;78.52
71948;BME280;63257;55.082;38.772;2023-02-12T02:11:28;98493.47;;;-0.03;78.54
71948;BME280;63257;55.082;38.772;2023-02-12T02:14:12;98480.13;;;-0.18;78.19
71948;BME280;63257;55.082;38.772;2023-02-12T02:22:45;98503.25;;;-0.11;78.61
71948;BME280;63257;55.082;38.772;2023-02-12T02:31:03;98519.06;;;-0.19;79.90
71948;BME280;63257;55.082;38.772;2023-02-12T02:36:34;98537.22;;;-0.19;79.87
71948;BME280;63257;55.082;38.772;2023-02-12T02:42:09;98532.38;;;-0.30;80.72
71948;BME280;63257;55.082;38.772;2023-02-12T02:44:53;98543.09;;;-0.41;80.89
71948;BME280;63257;55.082;38.772;2023-02-12T02:47:29;98538.13;;;-0.48;81.45
71948;BME280;63257;55.082;38.772;2023-02-12T02:50:11;98548.81;;;-0.59;81.19
71948;BME280;63257;55.082;38.772;2023-02-12T02:53:03;98554.59;;;-0.49;81.40
71948;BME280;63257;55.082;38.772;2023-02-12T02:55:36;98576.38;;;-0.57;81.19
71948;BME280;63257;55.082;38.772;2023-02-12T02:58:44;98567.56;;;-0.51;80.54
71948;BME280;63257;55.082;38.772;2023-02-12T03:06:55;98590.66;;;-0.72;82.78
71948;BME280;63257;55.082;38.772;2023-02-12T03:09:56;98590.63;;;-0.70;82.71
71948;BME280;63257;55.082;38.772;2023-02-12T03:12:32;98613.19;;;-0.74;82.49
71948;BME280;63257;55.082;38.772;2023-02-12T03:15:30;98603.84;;;-0.79;81.84
71948;BME280;63257;55.082;38.772;2023-02-12T03:17:58;98595.47;;;-0.89;81.99
71948;BME280;63257;55.082;38.772;2023-02-12T03:20:31;98615.72;;;-1.04;82.29
71948;BME280;63257;55.082;38.772;2023-02-12T03:23:04;98632.13;;;-1.03;82.68
71948;BME280;63257;55.082;38.772;2023-02-12T03:25:39;98631.06;;;-0.96;81.93
71948;BME280;63257;55.082;38.772;2023-02-12T03:28:15;98644.13;;;-1.00;82.40
71948;BME280;63257;55.082;38.772;2023-02-12T03:30:48;98637.00;;;-0.92;82.46
71948;BME280;63257;55.082;38.772;2023-02-12T03:36:00;98661.84;;;-1.16;82.08
71948;BME280;63257;55.082;38.772;2023-02-12T03:38:35;98671.44;;;-1.22;82.56
71948;BME280;63257;55.082;38.772;2023-02-12T03:41:08;98675.34;;;-1.40;82.50
71948;BME280;63257;55.082;38.772;2023-02-12T03:46:22;98711.88;;;-1.52;83.60
71948;BME280;63257;55.082;38.772;2023-02-12T03:49:06;98708.00;;;-1.70;83.07
71948;BME280;63257;55.082;38.772;2023-02-12T03:51:44;98705.50;;;-1.73;83.54
71948;BME280;63257;55.082;38.772;2023-02-12T03:54:12;98706.19;;;-1.66;83.72
71948;BME280;63257;55.082;38.772;2023-02-12T03:56:46;98702.88;;;-1.72;83.25
71948;BME280;63257;55.082;38.772;2023-02-12T03:59:18;98715.34;;;-1.89;84.00
71948;BME280;63257;55.082;38.772;2023-02-12T04:01:46;98725.06;;;-2.00;83.55
71948;BME280;63257;55.082;38.772;2023-02-12T04:04:13;98727.00;;;-2.10;84.19
71948;BME280;63257;55.082;38.772;2023-02-12T04:06:39;98730.59;;;-2.17;83.67
71948;BME280;63257;55.082;38.772;2023-02-12T04:09:08;98731.34;;;-2.12;83.81
71948;BME280;63257;55.082;38.772;2023-02-12T04:17:21;98753.09;;;-2.21;84.51
71948;BME280;63257;55.082;38.772;2023-02-12T04:20:06;98728.44;;;-2.37;84.49
71948;BME280;63257;55.082;38.772;2023-02-12T04:25:29;98775.75;;;-2.35;84.85
71948;BME280;63257;55.082;38.772;2023-02-12T04:33:44;98780.16;;;-2.39;87.16
71948;BME280;63257;55.082;38.772;2023-02-12T04:36:20;98789.00;;;-2.52;84.19
71948;BME280;63257;55.082;38.772;2023-02-12T04:38:53;98781.22;;;-2.51;84.39
71948;BME280;63257;55.082;38.772;2023-02-12T04:41:21;98790.06;;;-2.64;84.45
71948;BME280;63257;55.082;38.772;2023-02-12T04:43:46;98804.59;;;-2.59;84.37
71948;BME280;63257;55.082;38.772;2023-02-12T04:46:12;98784.91;;;-2.64;84.52
71948;BME280;63257;55.082;38.772;2023-02-12T04:48:53;98809.84;;;-2.62;85.07
71948;BME280;63257;55.082;38.772;2023-02-12T04:51:19;98822.63;;;-2.54;84.08
71948;BME280;63257;55.082;38.772;2023-02-12T04:53:45;98852.75;;;-2.54;83.65
71948;BME280;63257;55.082;38.772;2023-02-12T04:56:12;98833.38;;;-2.79;83.99
71948;BME280;63257;55.082;38.772;2023-02-12T04:58:39;98820.56;;;-2.85;84.14
71948;BME280;63257;55.082;38.772;2023-02-12T05:01:05;98854.84;;;-2.75;84.02
71948;BME280;63257;55.082;38.772;2023-02-12T05:03:31;98876.41;;;-2.76;83.46
71948;BME280;63257;55.082;38.772;2023-02-12T05:06:03;98861.19;;;-2.95;83.79
71948;BME280;63257;55.082;38.772;2023-02-12T05:08:29;98866.19;;;-2.84;84.23
71948;BME280;63257;55.082;38.772;2023-02-12T05:10:54;98912.00;;;-2.97;83.61
71948;BME280;63257;55.082;38.772;2023-02-12T05:13:21;98882.53;;;-2.83;83.56
71948;BME280;63257;55.082;38.772;2023-02-12T05:15:47;98915.31;;;-2.90;84.18
71948;BME280;63257;55.082;38.772;2023-02-12T05:18:13;98862.25;;;-3.08;83.69
71948;BME280;63257;55.082;38.772;2023-02-12T05:20:39;98940.16;;;-2.80;83.26
71948;BME280;63257;55.082;38.772;2023-02-12T05:23:05;98919.66;;;-2.91;82.77
71948;BME280;63257;55.082;38.772;2023-02-12T05:25:31;98920.47;;;-2.87;82.96
71948;BME280;63257;55.082;38.772;2023-02-12T05:27:57;98929.28;;;-3.02;82.76
71948;BME280;63257;55.082;38.772;2023-02-12T05:30:23;98928.41;;;-2.99;83.14
71948;BME280;63257;55.082;38.772;2023-02-12T05:32:49;98918.06;;;-2.99;81.87
71948;BME280;63257;55.082;38.772;2023-02-12T05:35:15;98928.28;;;-2.93;81.61
71948;BME280;63257;55.082;38.772;2023-02-12T05:37:41;98937.72;;;-2.91;81.87
71948;BME280;63257;55.082;38.772;2023-02-12T05:40:07;98944.63;;;-2.91;81.48
71948;BME280;63257;55.082;38.772;2023-02-12T05:42:33;98938.59;;;-2.92;80.92
71948;BME280;63257;55.082;38.772;2023-02-12T05:44:59;98961.81;;;-2.90;80.79
71948;BME280;63257;55.082;38.772;2023-02-12T05:47:25;98973.88;;;-2.91;80.36
71948;BME280;63257;55.082;38.772;2023-02-12T05:49:52;98967.81;;;-2.88;80.28
71948;BME280;63257;55.082;38.772;2023-02-12T05:52:18;98961.25;;;-3.09;80.72
71948;BME280;63257;55.082;38.772;2023-02-12T05:54:44;98985.13;;;-2.95;80.41
71948;BME280;63257;55.082;38.772;2023-02-12T05:57:13;99005.00;;;-3.00;80.53
71948;BME280;63257;55.082;38.772;2023-02-12T05:59:38;99018.78;;;-3.01;80.99
71948;BME280;63257;55.082;38.772;2023-02-12T06:02:04;99019.63;;;-3.00;80.84
71948;BME280;63257;55.082;38.772;2023-02-12T06:04:31;99005.16;;;-3.14;81.57
71948;BME280;63257;55.082;38.772;2023-02-12T06:06:59;99025.78;;;-3.09;81.15
71948;BME280;63257;55.082;38.772;2023-02-12T06:09:26;99017.09;;;-3.03;81.90
71948;BME280;63257;55.082;38.772;2023-02-12T06:11:51;99010.19;;;-3.03;80.98
71948;BME280;63257;55.082;38.772;2023-02-12T06:14:19;99047.97;;;-2.96;81.11
71948;BME280;63257;55.082;38.772;2023-02-12T06:16:47;99031.72;;;-3.04;81.37
71948;BME280;63257;55.082;38.772;2023-02-12T06:19:13;99054.84;;;-2.95;80.72
71948;BME280;63257;55.082;38.772;2023-02-12T06:21:39;99034.28;;;-3.01;80.50
71948;BME280;63257;55.082;38.772;2023-02-12T06:24:05;99039.28;;;-2.88;79.76
71948;BME280;63257;55.082;38.772;2023-02-12T06:26:31;99059.16;;;-2.94;79.89
71948;BME280;63257;55.082;38.772;2023-02-12T06:28:57;99057.38;;;-2.88;79.36
71948;BME280;63257;55.082;38.772;2023-02-12T06:31:26;99060.63;;;-2.74;79.06
71948;BME280;63257;55.082;38.772;2023-02-12T06:33:56;99068.34;;;-2.74;78.99
71948;BME280;63257;55.082;38.772;2023-02-12T06:36:23;99065.75;;;-2.73;79.30
71948;BME280;63257;55.082;38.772;2023-02-12T06:38:49;99083.88;;;-2.76;79.11
71948;BME280;63257;55.082;38.772;2023-02-12T06:41:19;99113.28;;;-2.84;78.87
71948;BME280;63257;55.082;38.772;2023-02-12T06:43:45;99091.84;;;-2.93;79.27
71948;BME280;63257;55.082;38.772;2023-02-12T06:50:16;99113.19;;;-2.78;78.83
71948;BME280;63257;55.082;38.772;2023-02-12T06:53:07;99118.41;;;-2.81;78.40
71948;BME280;63257;55.082;38.772;2023-02-12T06:55:34;99113.28;;;-2.86;78.38
71948;BME280;63257;55.082;38.772;2023-02-12T07:03:39;99141.69;;;-2.86;78.24
71948;BME280;63257;55.082;38.772;2023-02-12T07:10:06;99172.84;;;-3.01;77.24
71948;BME280;63257;55.082;38.772;2023-02-12T07:12:45;99179.78;;;-3.08;77.33
71948;BME280;63257;55.082;38.772;2023-02-12T07:19:12;99153.97;;;-3.05;76.65
71948;BME280;63257;55.082;38.772;2023-02-12T07:21:38;99201.22;;;-3.00;77.77
71948;BME280;63257;55.082;38.772;2023-02-12T07:24:04;99178.81;;;-2.95;76.42
71948;BME280;63257;55.082;38.772;2023-02-12T07:26:30;99203.66;;;-2.86;77.36
71948;BME280;63257;55.082;38.772;2023-02-12T07:28:56;99185.66;;;-2.91;76.64
71948;BME280;63257;55.082;38.772;2023-02-12T07:31:25;99202.94;;;-2.99;77.25
71948;BME280;63257;55.082;38.772;2023-02-12T07:33:55;99211.47;;;-2.91;77.05
71948;BME280;63257;55.082;38.772;2023-02-12T07:36:29;99209.84;;;-3.02;76.42
71948;BME280;63257;55.082;38.772;2023-02-12T07:38:59;99210.84;;;-3.13;76.17
71948;BME280;63257;55.082;38.772;2023-02-12T07:41:28;99266.69;;;-3.04;75.79
71948;BME280;63257;55.082;38.772;2023-02-12T07:43:57;99216.94;;;-3.21;76.30
71948;BME280;63257;55.082;38.772;2023-02-12T07:46:37;99284.81;;;-3.10;75.74
71948;BME280;63257;55.082;38.772;2023-02-12T07:49:05;99233.97;;;-3.02;76.14
71948;BME280;63257;55.082;38.772;2023-02-12T07:51:33;99258.13;;;-3.08;76.40
71948;BME280;63257;55.082;38.772;2023-02-12T07:54:04;99243.44;;;-3.02;76.33
71948;BME280;63257;55.082;38.772;2023-02-12T07:56:34;99276.09;;;-2.97;75.79
71948;BME280;63257;55.082;38.772;2023-02-12T07:59:06;99259.69;;;-2.90;75.50
71948;BME280;63257;55.082;38.772;2023-02-12T08:01:37;99259.72;;;-2.96;75.41
71948;BME280;63257;55.082;38.772;2023-02-12T08:04:09;99249.38;;;-2.93;75.01
71948;BME280;63257;55.082;38.772;2023-02-12T08:06:41;99256.38;;;-3.07;76.10
71948;BME280;63257;55.082;38.772;2023-02-12T08:09:35;99296.84;;;-3.11;76.54
71948;BME280;63257;55.082;38.772;2023-02-12T08:12:11;99290.00;;;-3.12;76.52
71948;BME280;63257;55.082;38.772;2023-02-12T08:18:18;99301.94;;;-2.97;75.58
71948;BME280;63257;55.082;38.772;2023-02-12T08:20:44;99303.50;;;-2.82;74.79
71948;BME280;63257;55.082;38.772;2023-02-12T08:23:10;99318.16;;;-2.84;74.78
71948;BME280;63257;55.082;38.772;2023-02-12T08:25:35;99315.59;;;-2.84;74.61
71948;BME280;63257;55.082;38.772;2023-02-12T08:28:02;99328.50;;;-2.85;74.63
71948;BME280;63257;55.082;38.772;2023-02-12T08:34:43;99323.19;;;-2.70;73.04
71948;BME280;63257;55.082;38.772;2023-02-12T08:37:09;99358.41;;;-2.58;73.20
71948;BME280;63257;55.082;38.772;2023-02-12T08:39:35;99340.44;;;-2.69;71.92
71948;BME280;63257;55.082;38.772;2023-02-12T08:42:00;99349.94;;;-2.76;72.35
71948;BME280;63257;55.082;38.772;2023-02-12T08:44:27;99355.97;;;-2.77;72.22
71948;BME280;63257;55.082;38.772;2023-02-12T08:46:53;99339.81;;;-2.99;73.22
71948;BME280;63257;55.082;38.772;2023-02-12T08:49:25;99356.09;;;-2.89;73.99
71948;BME280;63257;55.082;38.772;2023-02-12T08:51:54;99392.22;;;-2.87;73.44
71948;BME280;63257;55.082;38.772;2023-02-12T08:54:22;99369.03;;;-2.92;74.30
71948;BME280;63257;55.082;38.772;2023-02-12T08:56:49;99376.72;;;-2.83;73.41
71948;BME280;63257;55.082;38.772;2023-02-12T08:59:15;99373.41;;;-3.03;73.76
71948;BME280;63257;55.082;38.772;2023-02-12T09:01:42;99368.28;;;-3.05;73.83
71948;BME280;63257;55.082;38.772;2023-02-12T09:08:07;99390.66;;;-3.07;73.77
71948;BME280;63257;55.082;38.772;2023-02-12T09:10:37;99418.13;;;-2.94;73.33
71948;BME280;63257;55.082;38.772;2023-02-12T09:13:03;99408.66;;;-2.96;73.54
71948;BME280;63257;55.082;38.772;2023-02-12T09:15:29;99405.25;;;-3.04;73.43
71948;BME280;63257;55.082;38.772;2023-02-12T09:17:54;99398.19;;;-2.81;73.01
71948;BME280;63257;55.082;38.772;2023-02-12T09:20:20;99393.00;;;-2.78;72.86
71948;BME280;63257;55.082;38.772;2023-02-12T09:22:46;99413.03;;;-3.06;72.89
71948;BME280;63257;55.082;38.772;2023-02-12T09:25:13;99409.56;;;-3.03;73.14
71948;BME280;63257;55.082;38.772;2023-02-12T09:27:39;99407.00;;;-3.05;72.51
71948;BME280;63257;55.082;38.772;2023-02-12T09:30:05;99399.28;;;-3.13;73.21
71948;BME280;63257;55.082;38.772;2023-02-12T09:32:31;99407.00;;;-3.08;73.88
71948;BME280;63257;55.082;38.772;2023-02-12T09:34:57;99431.06;;;-3.01;72.28
71948;BME280;63257;55.082;38.772;2023-02-12T09:37:23;99431.13;;;-3.08;72.59
71948;BME280;63257;55.082;38.772;2023-02-12T09:39:49;99422.56;;;-3.17;71.60
71948;BME280;63257;55.082;38.772;2023-02-12T09:42:59;99450.06;;;-3.15;71.25
71948;BME280;63257;55.082;38.772;2023-02-12T09:45:33;99445.00;;;-3.26;70.86
71948;BME280;63257;55.082;38.772;2023-02-12T09:52:24;99469.84;;;-3.06;70.42
71948;BME280;63257;55.082;38.772;2023-02-12T09:59:16;99449.25;;;-3.25;70.04
71948;BME280;63257;55.082;38.772;2023-02-12T10:06:04;99469.94;;;-3.28;70.67
71948;BME280;63257;55.082;38.772;2023-02-12T10:12:56;99494.72;;;-2.96;68.29
71948;BME280;63257;55.082;38.772;2023-02-12T10:15:51;99512.88;;;-3.05;68.60
71948;BME280;63257;55.082;38.772;2023-02-12T10:25:58;99500.97;;;-3.49;69.33
71948;BME280;63257;55.082;38.772;2023-02-12T10:28:33;99531.03;;;-3.27;69.49
71948;BME280;63257;55.082;38.772;2023-02-12T10:31:24;99537.06;;;-3.37;69.37
71948;BME280;63257;55.082;38.772;2023-02-12T10:33:54;99559.41;;;-3.27;69.24
71948;BME280;63257;55.082;38.772;2023-02-12T10:39:03;99548.22;;;-3.24;69.37
71948;BME280;63257;55.082;38.772;2023-02-12T10:41:36;99567.13;;;-3.16;68.87
71948;BME280;63257;55.082;38.772;2023-02-12T10:44:04;99555.00;;;-3.01;69.41
71948;BME280;63257;55.082;38.772;2023-02-12T10:46:30;99555.88;;;-3.05;68.89
71948;BME280;63257;55.082;38.772;2023-02-12T10:48:59;99560.16;;;-2.95;69.53
71948;BME280;63257;55.082;38.772;2023-02-12T11:00:54;99582.69;;;-3.39;69.05
71948;BME280;63257;55.082;38.772;2023-02-12T11:03:22;99575.78;;;-3.35;68.80
71948;BME280;63257;55.082;38.772;2023-02-12T11:05:51;99587.78;;;-3.22;68.53
71948;BME280;63257;55.082;38.772;2023-02-12T11:08:36;99591.22;;;-3.23;67.96
71948;BME280;63257;55.082;38.772;2023-02-12T11:11:09;99537.13;;;-3.62;66.75
71948;BME280;63257;55.082;38.772;2023-02-12T11:13:59;99596.41;;;-3.28;68.17
71948;BME280;63257;55.082;38.772;2023-02-12T11:19:01;99635.09;;;-3.15;66.43
71948;BME280;63257;55.082;38.772;2023-02-12T11:21:29;99654.06;;;-3.30;66.27
71948;BME280;63257;55.082;38.772;2023-02-12T11:23:56;99613.66;;;-3.44;66.68
71948;BME280;63257;55.082;38.772;2023-02-12T11:26:25;99614.47;;;-3.28;66.42
71948;BME280;63257;55.082;38.772;2023-02-12T11:28:58;99640.31;;;-3.21;65.31
71948;BME280;63257;55.082;38.772;2023-02-12T11:31:27;99684.13;;;-3.11;64.49
71948;BME280;63257;55.082;38.772;2023-02-12T11:34:16;99639.44;;;-3.27;64.60
71948;BME280;63257;55.082;38.772;2023-02-12T11:36:51;99655.78;;;-3.17;64.56
71948;BME280;63257;55.082;38.772;2023-02-12T11:39:32;99688.47;;;-3.34;64.14
71948;BME280;63257;55.082;38.772;2023-02-12T11:42:04;99678.16;;;-3.30;64.19
71948;BME280;63257;55.082;38.772;2023-02-12T11:44:34;99672.97;;;-3.31;64.18
71948;BME280;63257;55.082;38.772;2023-02-12T11:47:07;99679.88;;;-3.19;63.86
71948;BME280;63257;55.082;38.772;2023-02-12T11:49:48;99688.47;;;-3.16;63.09
71948;BME280;63257;55.082;38.772;2023-02-12T11:52:25;99673.84;;;-3.21;63.41
71948;BME280;63257;55.082;38.772;2023-02-12T11:55:02;99700.53;;;-3.35;62.91
71948;BME280;63257;55.082;38.772;2023-02-12T12:02:57;99709.13;;;-3.37;62.19
71948;BME280;63257;55.082;38.772;2023-02-12T12:05:31;99707.41;;;-3.21;62.65
71948;BME280;63257;55.082;38.772;2023-02-12T12:08:03;99700.56;;;-3.38;61.47
71948;BME280;63257;55.082;38.772;2023-02-12T12:10:56;99744.41;;;-3.33;61.53
71948;BME280;63257;55.082;38.772;2023-02-12T12:13:29;99716.03;;;-3.46;60.69
71948;BME280;63257;55.082;38.772;2023-02-12T12:16:08;99725.47;;;-3.28;60.69
71948;BME280;63257;55.082;38.772;2023-02-12T12:19:31;99740.09;;;-3.33;61.34
71948;BME280;63257;55.082;38.772;2023-02-12T12:33:43;99779.69;;;-3.45;64.36
71948;BME280;63257;55.082;38.772;2023-02-12T13:11:45;99835.47;;;-3.85;61.38
71948;BME280;63257;55.082;38.772;2023-02-12T13:14:53;99846.69;;;-3.77;61.38
71948;BME280;63257;55.082;38.772;2023-02-12T13:22:59;99853.63;;;-3.67;61.62
71948;BME280;63257;55.082;38.772;2023-02-12T13:26:09;99861.34;;;-3.67;61.86
71948;BME280;63257;55.082;38.772;2023-02-12T13:28:42;99857.03;;;-3.63;62.11
71948;BME280;63257;55.082;38.772;2023-02-12T13:31:13;99862.19;;;-3.60;62.26
71948;BME280;63257;55.082;38.772;2023-02-12T13:34:10;99858.72;;;-3.76;62.36
71948;BME280;63257;55.082;38.772;2023-02-12T13:36:39;99874.22;;;-3.70;62.11
71948;BME280;63257;55.082;38.772;2023-02-12T13:41:35;99890.53;;;-3.76;61.93
71948;BME280;63257;55.082;38.772;2023-02-12T13:44:21;99893.94;;;-3.83;62.74
71948;BME280;63257;55.082;38.772;2023-02-12T13:47:25;99905.16;;;-3.76;63.38
71948;BME280;63257;55.082;38.772;2023-02-12T13:50:04;99920.63;;;-3.76;63.45
71948;BME280;63257;55.082;38.772;2023-02-12T13:55:24;99922.34;;;-3.78;63.52
71948;BME280;63257;55.082;38.772;2023-02-12T14:00:59;99924.91;;;-3.80;63.02
71948;BME280;63257;55.082;38.772;2023-02-12T14:03:28;99930.13;;;-3.70;63.73
71948;BME280;63257;55.082;38.772;2023-02-12T14:06:19;99937.00;;;-3.71;62.72
71948;BME280;63257;55.082;38.772;2023-02-12T14:08:50;99942.16;;;-3.71;62.48
71948;BME280;63257;55.082;38.772;2023-02-12T14:11:20;99958.50;;;-3.69;62.14
71948;BME280;63257;55.082;38.772;2023-02-12T14:16:38;99961.84;;;-3.92;61.81
71948;BME280;63257;55.082;38.772;2023-02-12T14:22:13;99973.84;;;-3.92;61.54
71948;BME280;63257;55.082;38.772;2023-02-12T14:24:56;99963.44;;;-4.09;61.12
71948;BME280;63257;55.082;38.772;2023-02-12T14:27:26;99990.88;;;-4.14;61.41
71948;BME280;63257;55.082;38.772;2023-02-12T14:35:35;99998.53;;;-4.27;61.82
71948;BME280;63257;55.082;38.772;2023-02-12T14:40:52;100012.94;;;-4.49;62.43
71948;BME280;63257;55.082;38.772;2023-02-12T14:43:35;99999.16;;;-4.55;62.88
71948;BME280;63257;55.082;38.772;2023-02-12T14:48:59;100006.78;;;-4.63;62.65
71948;BME280;63257;55.082;38.772;2023-02-12T14:51:40;100013.63;;;-4.70;63.44
71948;BME280;63257;55.082;38.772;2023-02-12T14:54:14;100006.78;;;-4.63;63.65
71948;BME280;63257;55.082;38.772;2023-02-12T14:56:47;99989.41;;;-4.89;63.73
71948;BME280;63257;55.082;38.772;2023-02-12T14:59:18;100029.09;;;-4.68;64.00
71948;BME280;63257;55.082;38.772;2023-02-12T15:01:45;100023.88;;;-4.71;64.27
71948;BME280;63257;55.082;38.772;2023-02-12T15:04:19;100044.56;;;-4.67;63.70
71948;BME280;63257;55.082;38.772;2023-02-12T15:07:07;100042.78;;;-4.72;64.22
71948;BME280;63257;55.082;38.772;2023-02-12T15:09:38;100018.56;;;-4.88;64.42
71948;BME280;63257;55.082;38.772;2023-02-12T15:12:16;100047.81;;;-4.82;64.62
71948;BME280;63257;55.082;38.772;2023-02-12T15:14:49;100029.72;;;-4.89;64.49
71948;BME280;63257;55.082;38.772;2023-02-12T15:17:26;100060.56;;;-4.96;64.62
71948;BME280;63257;55.082;38.772;2023-02-12T15:20:04;100065.72;;;-4.94;64.81
71948;BME280;63257;55.082;38.772;2023-02-12T15:22:39;100065.00;;;-4.82;64.62
71948;BME280;63257;55.082;38.772;2023-02-12T15:25:27;100084.72;;;-4.84;64.76
71948;BME280;63257;55.082;38.772;2023-02-12T15:28:23;100084.56;;;-4.95;64.68
71948;BME280;63257;55.082;38.772;2023-02-12T15:30:55;100075.19;;;-4.93;64.77
71948;BME280;63257;55.082;38.772;2023-02-12T15:33:27;100086.28;;;-4.99;65.27
71948;BME280;63257;55.082;38.772;2023-02-12T15:35:54;100088.03;;;-4.95;65.05
71948;BME280;63257;55.082;38.772;2023-02-12T15:38:33;100094.00;;;-4.99;64.98
71948;BME280;63257;55.082;38.772;2023-02-12T15:41:00;100092.16;;;-5.06;65.40
71948;BME280;63257;55.082;38.772;2023-02-12T15:43:30;100106.78;;;-5.03;65.17
71948;BME280;63257;55.082;38.772;2023-02-12T15:50:13;100069.47;;;-5.38;65.55
71948;BME280;63257;55.082;38.772;2023-02-12T15:52:41;100114.44;;;-5.11;65.98
71948;BME280;63257;55.082;38.772;2023-02-12T15:55:16;100125.59;;;-5.09;65.47
71948;BME280;63257;55.082;38.772;2023-02-12T15:57:47;100131.56;;;-5.13;65.45
71948;BME280;63257;55.082;38.772;2023-02-12T16:07:02;100135.94;;;-5.66;66.33
71948;BME280;63257;55.082;38.772;2023-02-12T16:09:32;100155.72;;;-5.62;66.96
71948;BME280;63257;55.082;38.772;2023-02-12T16:12:02;100147.25;;;-5.54;66.93
71948;BME280;63257;55.082;38.772;2023-02-12T16:14:45;100157.38;;;-5.64;66.97
71948;BME280;63257;55.082;38.772;2023-02-12T16:19:55;100162.00;;;-5.44;66.40
71948;BME280;63257;55.082;38.772;2023-02-12T16:22:29;100140.44;;;-5.52;66.40
71948;BME280;63257;55.082;38.772;2023-02-12T16:24:57;100168.94;;;-5.38;66.23
71948;BME280;63257;55.082;38.772;2023-02-12T16:27:31;100148.22;;;-5.48;66.25
71948;BME280;63257;55.082;38.772;2023-02-12T16:30:05;100168.94;;;-5.40;66.30
71948;BME280;63257;55.082;38.772;2023-02-12T16:32:37;100175.00;;;-5.33;66.74
71948;BME280;63257;55.082;38.772;2023-02-12T16:42:34;100186.94;;;-5.40;67.70
71948;BME280;63257;55.082;38.772;2023-02-12T16:45:00;100183.44;;;-5.43;67.60
71948;BME280;63257;55.082;38.772;2023-02-12T16:47:48;100204.78;;;-5.51;68.04
71948;BME280;63257;55.082;38.772;2023-02-12T16:50:16;100194.38;;;-5.55;67.72